sensor_id;sensor_type;location;lat;lon;timestamp;P1;durP1;ratioP1;P2;durP2;ratioP2
7561;SDS011;3822;48.784;9.174;2023-02-03T11:21:40;2.17;;;1.07;;
7561;SDS011;3822;48.784;9.174;2023-02-03T11:24:10;1.20;;;1.00;;
7561;SDS011;3822;48.784;9.174;2023-02-03T11:26:53;1.60;;;1.10;;
7561;SDS011;3822;48.784;9.174;2023-02-03T11:29:25;4.40;;;1.23;;
7561;SDS011;3822;48.784;9.174;2023-02-03T11:31:56;1.47;;;1.17;;
7561;SDS011;3822;48.784;9.174;2023-02-03T11:34:29;1.23;;;1.00;;
7561;SDS011;3822;48.784;9.174;2023-02-03T11:42:36;3.57;;;0.93;;
7561;SDS011;3822;48.784;9.174;2023-02-03T11:47:45;1.10;;;1.00;;
7561;SDS011;3822;48.784;9.174;2023-02-03T11:50:41;1.10;;;0.90;;
7561;SDS011;3822;48.784;9.174;2023-02-03T11:53:21;1.23;;;0.90;;
7561;SDS011;3822;48.784;9.174;2023-02-03T12:14:19;1.33;;;1.00;;
7561;SDS011;3822;48.784;9.174;2023-02-03T12:17:12;1.10;;;1.00;;
7561;SDS011;3822;48.784;9.174;2023-02-03T12:32:19;1.00;;;0.90;;
7561;SDS011;3822;48.784;9.174;2023-02-03T12:34:34;1.00;;;0.90;;
7561;SDS011;3822;48.784;9.174;2023-02-03T12:37:24;1.10;;;0.83;;
7561;SDS011;3822;48.784;9.174;2023-02-03T12:40:00;3.23;;;1.10;;
7561;SDS011;3822;48.784;9.174;2023-02-03T12:43:07;1.43;;;1.03;;
7561;SDS011;3822;48.784;9.174;2023-02-03T12:45:41;1.50;;;1.10;;
7561;SDS011;3822;48.784;9.174;2023-02-03T12:48:19;1.20;;;0.90;;
7561;SDS011;3822;48.784;9.174;2023-02-03T12:50:55;1.37;;;1.10;;
7561;SDS011;3822;48.784;9.174;2023-02-03T12:53:32;1.83;;;0.97;;
7561;SDS011;3822;48.784;9.174;2023-02-03T12:59:24;1.07;;;0.90;;
7561;SDS011;3822;48.784;9.174;2023-02-03T13:01:33;1.30;;;1.10;;
7561;SDS011;3822;48.784;9.174;2023-02-03T13:07:39;1.10;;;1.00;;
7561;SDS011;3822;48.784;9.174;2023-02-03T13:10:47;1.43;;;1.10;;
7561;SDS011;3822;48.784;9.174;2023-02-03T13:13:27;1.50;;;1.00;;
7561;SDS011;3822;48.784;9.174;2023-02-03T13:16:00;1.00;;;0.90;;
7561;SDS011;3822;48.784;9.174;2023-02-03T13:18:37;1.30;;;1.07;;
7561;SDS011;3822;48.784;9.174;2023-02-03T13:21:09;1.67;;;1.20;;
7561;SDS011;3822;48.784;9.174;2023-02-03T13:23:40;1.10;;;0.90;;
7561;SDS011;3822;48.784;9.174;2023-02-03T13:32:14;1.30;;;1.03;;
7561;SDS011;3822;48.784;9.174;2023-02-03T13:43:33;1.83;;;1.13;;
7561;SDS011;3822;48.784;9.174;2023-02-03T13:46:16;0.90;;;0.80;;
7561;SDS011;3822;48.784;9.174;2023-02-03T13:48:55;1.00;;;0.90;;
7561;SDS011;3822;48.784;9.174;2023-02-03T13:51:35;1.73;;;1.10;;
7561;SDS011;3822;48.784;9.174;2023-02-03T13:54:27;1.60;;;1.20;;
7561;SDS011;3822;48.784;9.174;2023-02-03T13:57:27;1.20;;;1.00;;
7561;SDS011;3822;48.784;9.174;2023-02-03T13:59:53;1.43;;;1.00;;
7561;SDS011;3822;48.784;9.174;2023-02-03T14:04:54;4.10;;;1.10;;
7561;SDS011;3822;48.784;9.174;2023-02-03T14:07:34;1.90;;;1.00;;
7561;SDS011;3822;48.784;9.174;2023-02-03T14:17:59;2.60;;;1.00;;
7561;SDS011;3822;48.784;9.174;2023-02-03T14:20:39;1.57;;;0.90;;
7561;SDS011;3822;48.784;9.174;2023-02-03T14:23:10;1.40;;;1.03;;
7561;SDS011;3822;48.784;9.174;2023-02-03T14:25:49;1.10;;;0.90;;
7561;SDS011;3822;48.784;9.174;2023-02-03T14:28:22;1.13;;;0.90;;
7561;SDS011;3822;48.784;9.174;2023-02-03T14:31:07;1.80;;;1.20;;
7561;SDS011;3822;48.784;9.174;2023-02-03T14:33:46;1.13;;;1.00;;
7561;SDS011;3822;48.784;9.174;2023-02-03T14:39:19;1.30;;;1.00;;
7561;SDS011;3822;48.784;9.174;2023-02-03T14:48:26;2.03;;;1.00;;
7561;SDS011;3822;48.784;9.174;2023-02-03T15:00:07;2.23;;;1.00;;
7561;SDS011;3822;48.784;9.174;2023-02-03T15:05:43;5.80;;;1.10;;
7561;SDS011;3822;48.784;9.174;2023-02-03T15:14:20;1.33;;;0.97;;
7561;SDS011;3822;48.784;9.174;2023-02-03T15:16:53;1.10;;;0.90;;
7561;SDS011;3822;48.784;9.174;2023-02-03T15:19:37;2.40;;;0.90;;
7561;SDS011;3822;48.784;9.174;2023-02-03T15:24:59;8.90;;;1.50;;
7561;SDS011;3822;48.784;9.174;2023-02-03T15:27:43;1.50;;;1.03;;
7561;SDS011;3822;48.784;9.174;2023-02-03T15:30:14;1.30;;;0.90;;
7561;SDS011;3822;48.784;9.174;2023-02-03T15:33:10;1.00;;;0.90;;
7561;SDS011;3822;48.784;9.174;2023-02-03T15:35:43;2.50;;;0.93;;
7561;SDS011;3822;48.784;9.174;2023-02-03T15:38:12;1.30;;;1.00;;
7561;SDS011;3822;48.784;9.174;2023-02-03T15:40:50;1.30;;;0.90;;
7561;SDS011;3822;48.784;9.174;2023-02-03T15:43:32;1.10;;;1.00;;
7561;SDS011;3822;48.784;9.174;2023-02-03T15:48:48;1.23;;;1.13;;
7561;SDS011;3822;48.784;9.174;2023-02-03T15:51:29;0.97;;;0.87;;
7561;SDS011;3822;48.784;9.174;2023-02-03T15:56:59;1.00;;;0.90;;
7561;SDS011;3822;48.784;9.174;2023-02-03T15:59:38;2.90;;;0.90;;
7561;SDS011;3822;48.784;9.174;2023-02-03T16:02:13;1.10;;;1.00;;
7561;SDS011;3822;48.784;9.174;2023-02-03T16:04:44;1.00;;;0.90;;
7561;SDS011;3822;48.784;9.174;2023-02-03T16:07:15;0.97;;;0.80;;
7561;SDS011;3822;48.784;9.174;2023-02-03T16:09:52;1.00;;;0.90;;
7561;SDS011;3822;48.784;9.174;2023-02-03T16:12:24;1.00;;;0.90;;
7561;SDS011;3822;48.784;9.174;2023-02-03T16:14:53;1.00;;;0.87;;
7561;SDS011;3822;48.784;9.174;2023-02-03T16:17:29;0.90;;;0.80;;
7561;SDS011;3822;48.784;9.174;2023-02-03T16:22:40;1.30;;;1.10;;
7561;SDS011;3822;48.784;9.174;2023-02-03T16:25:13;1.10;;;1.00;;
7561;SDS011;3822;48.784;9.174;2023-02-03T16:27:48;1.53;;;1.33;;
7561;SDS011;3822;48.784;9.174;2023-02-03T16:30:50;4.50;;;1.10;;
7561;SDS011;3822;48.784;9.174;2023-02-03T16:34:15;1.83;;;1.10;;
7561;SDS011;3822;48.784;9.174;2023-02-03T16:40:09;1.30;;;1.00;;
7561;SDS011;3822;48.784;9.174;2023-02-03T16:42:57;1.30;;;0.90;;
7561;SDS011;3822;48.784;9.174;2023-02-03T16:45:43;1.10;;;1.00;;
7561;SDS011;3822;48.784;9.174;2023-02-03T16:48:27;2.40;;;1.10;;
7561;SDS011;3822;48.784;9.174;2023-02-03T16:51:13;2.33;;;1.20;;
7561;SDS011;3822;48.784;9.174;2023-02-03T16:53:43;1.80;;;1.10;;
7561;SDS011;3822;48.784;9.174;2023-02-03T16:56:12;1.30;;;0.90;;
7561;SDS011;3822;48.784;9.174;2023-02-03T16:58:40;1.10;;;0.90;;
7561;SDS011;3822;48.784;9.174;2023-02-03T17:01:07;1.37;;;1.03;;
7561;SDS011;3822;48.784;9.174;2023-02-03T17:03:36;1.87;;;0.93;;
7561;SDS011;3822;48.784;9.174;2023-02-03T17:06:05;1.20;;;1.10;;
7561;SDS011;3822;48.784;9.174;2023-02-03T17:08:34;1.50;;;1.00;;
7561;SDS011;3822;48.784;9.174;2023-02-03T17:11:06;5.27;;;1.00;;
7561;SDS011;3822;48.784;9.174;2023-02-03T17:13:41;1.73;;;1.10;;
7561;SDS011;3822;48.784;9.174;2023-02-03T17:16:10;1.40;;;1.20;;
7561;SDS011;3822;48.784;9.174;2023-02-03T17:18:41;1.73;;;1.10;;
7561;SDS011;3822;48.784;9.174;2023-02-03T17:21:10;3.80;;;1.20;;
7561;SDS011;3822;48.784;9.174;2023-02-03T17:23:50;1.40;;;1.10;;
7561;SDS011;3822;48.784;9.174;2023-02-03T17:26:16;1.20;;;1.10;;
7561;SDS011;3822;48.784;9.174;2023-02-03T17:28:43;1.20;;;1.10;;
7561;SDS011;3822;48.784;9.174;2023-02-03T17:31:14;1.10;;;1.00;;
7561;SDS011;3822;48.784;9.174;2023-02-03T17:42:39;1.10;;;1.00;;
7561;SDS011;3822;48.784;9.174;2023-02-03T17:45:05;1.20;;;1.07;;
7561;SDS011;3822;48.784;9.174;2023-02-03T17:47:32;1.53;;;1.00;;
7561;SDS011;3822;48.784;9.174;2023-02-03T17:49:59;1.03;;;0.90;;
7561;SDS011;3822;48.784;9.174;2023-02-03T17:52:27;2.13;;;1.00;;
7561;SDS011;3822;48.784;9.174;2023-02-03T17:54:53;2.00;;;1.10;;
7561;SDS011;3822;48.784;9.174;2023-02-03T17:57:20;2.23;;;1.10;;
7561;SDS011;3822;48.784;9.174;2023-02-03T17:59:46;1.20;;;1.00;;
7561;SDS011;3822;48.784;9.174;2023-02-03T18:02:13;1.50;;;1.10;;
7561;SDS011;3822;48.784;9.174;2023-02-03T18:04:39;2.50;;;1.10;;
7561;SDS011;3822;48.784;9.174;2023-02-03T18:07:06;1.17;;;1.00;;
7561;SDS011;3822;48.784;9.174;2023-02-03T18:09:33;1.30;;;1.20;;
7561;SDS011;3822;48.784;9.174;2023-02-03T18:11:59;4.63;;;1.60;;
7561;SDS011;3822;48.784;9.174;2023-02-03T18:14:26;1.37;;;1.07;;
7561;SDS011;3822;48.784;9.174;2023-02-03T18:16:52;1.10;;;1.00;;
7561;SDS011;3822;48.784;9.174;2023-02-03T18:19:19;1.17;;;0.90;;
7561;SDS011;3822;48.784;9.174;2023-02-03T18:21:45;1.30;;;1.20;;
7561;SDS011;3822;48.784;9.174;2023-02-03T18:24:12;1.93;;;1.10;;
7561;SDS011;3822;48.784;9.174;2023-02-03T18:26:49;1.40;;;1.17;;
7561;SDS011;3822;48.784;9.174;2023-02-03T18:29:17;1.40;;;1.10;;
7561;SDS011;3822;48.784;9.174;2023-02-03T18:31:44;1.20;;;1.10;;
7561;SDS011;3822;48.784;9.174;2023-02-03T18:34:11;1.53;;;1.00;;
7561;SDS011;3822;48.784;9.174;2023-02-03T18:36:39;1.30;;;1.10;;
7561;SDS011;3822;48.784;9.174;2023-02-03T18:39:06;1.83;;;1.10;;
7561;SDS011;3822;48.784;9.174;2023-02-03T18:41:33;1.40;;;1.20;;
7561;SDS011;3822;48.784;9.174;2023-02-03T18:44:01;1.40;;;1.10;;
7561;SDS011;3822;48.784;9.174;2023-02-03T18:49:12;1.20;;;0.80;;
7561;SDS011;3822;48.784;9.174;2023-02-03T18:51:39;1.30;;;1.17;;
7561;SDS011;3822;48.784;9.174;2023-02-03T18:54:06;1.30;;;1.10;;
7561;SDS011;3822;48.784;9.174;2023-02-03T18:56:32;1.90;;;1.10;;
7561;SDS011;3822;48.784;9.174;2023-02-03T18:59:09;1.53;;;1.23;;
7561;SDS011;3822;48.784;9.174;2023-02-03T19:01:36;1.40;;;1.10;;
7561;SDS011;3822;48.784;9.174;2023-02-03T19:04:03;1.77;;;1.30;;
7561;SDS011;3822;48.784;9.174;2023-02-03T19:06:31;1.50;;;1.40;;
7561;SDS011;3822;48.784;9.174;2023-02-03T19:08:59;1.30;;;1.10;;
7561;SDS011;3822;48.784;9.174;2023-02-03T19:11:27;1.33;;;1.10;;
7561;SDS011;3822;48.784;9.174;2023-02-03T19:13:53;1.53;;;1.30;;
7561;SDS011;3822;48.784;9.174;2023-02-03T19:16:20;1.40;;;1.23;;
7561;SDS011;3822;48.784;9.174;2023-02-03T19:18:47;1.20;;;1.10;;
7561;SDS011;3822;48.784;9.174;2023-02-03T19:21:14;1.37;;;1.27;;
7561;SDS011;3822;48.784;9.174;2023-02-03T19:23:42;1.53;;;1.10;;
7561;SDS011;3822;48.784;9.174;2023-02-03T19:26:08;1.80;;;1.50;;
7561;SDS011;3822;48.784;9.174;2023-02-03T19:28:36;1.30;;;1.20;;
7561;SDS011;3822;48.784;9.174;2023-02-03T19:31:09;1.10;;;1.00;;
7561;SDS011;3822;48.784;9.174;2023-02-03T19:36:28;1.10;;;1.00;;
7561;SDS011;3822;48.784;9.174;2023-02-03T19:38:55;2.60;;;1.23;;
7561;SDS011;3822;48.784;9.174;2023-02-03T19:41:22;1.30;;;1.13;;
7561;SDS011;3822;48.784;9.174;2023-02-03T19:43:50;1.13;;;1.03;;
7561;SDS011;3822;48.784;9.174;2023-02-03T19:46:18;1.20;;;1.10;;
7561;SDS011;3822;48.784;9.174;2023-02-03T19:48:48;1.33;;;1.23;;
7561;SDS011;3822;48.784;9.174;2023-02-03T19:51:15;1.40;;;1.20;;
7561;SDS011;3822;48.784;9.174;2023-02-03T19:53:42;2.00;;;1.27;;
7561;SDS011;3822;48.784;9.174;2023-02-03T19:56:08;1.97;;;1.20;;
7561;SDS011;3822;48.784;9.174;2023-02-03T19:58:34;1.17;;;1.07;;
7561;SDS011;3822;48.784;9.174;2023-02-03T20:01:01;2.23;;;1.50;;
7561;SDS011;3822;48.784;9.174;2023-02-03T20:03:28;1.30;;;1.20;;
7561;SDS011;3822;48.784;9.174;2023-02-03T20:05:56;2.03;;;1.20;;
7561;SDS011;3822;48.784;9.174;2023-02-03T20:08:23;1.30;;;1.00;;
7561;SDS011;3822;48.784;9.174;2023-02-03T20:10:49;2.83;;;1.10;;
7561;SDS011;3822;48.784;9.174;2023-02-03T20:13:17;1.40;;;1.10;;
7561;SDS011;3822;48.784;9.174;2023-02-03T20:15:43;1.53;;;1.10;;
7561;SDS011;3822;48.784;9.174;2023-02-03T20:18:12;1.20;;;1.10;;
7561;SDS011;3822;48.784;9.174;2023-02-03T20:20:38;1.73;;;1.10;;
7561;SDS011;3822;48.784;9.174;2023-02-03T20:23:05;1.20;;;1.10;;
7561;SDS011;3822;48.784;9.174;2023-02-03T20:25:31;1.33;;;1.00;;
7561;SDS011;3822;48.784;9.174;2023-02-03T20:27:58;1.73;;;1.30;;
7561;SDS011;3822;48.784;9.174;2023-02-03T20:30:27;1.10;;;1.00;;
7561;SDS011;3822;48.784;9.174;2023-02-03T20:32:53;1.20;;;1.10;;
7561;SDS011;3822;48.784;9.174;2023-02-03T20:35:20;1.10;;;1.00;;
7561;SDS011;3822;48.784;9.174;2023-02-03T20:37:49;1.40;;;1.20;;
7561;SDS011;3822;48.784;9.174;2023-02-03T20:40:18;1.63;;;1.20;;
7561;SDS011;3822;48.784;9.174;2023-02-03T20:42:48;1.23;;;0.90;;
7561;SDS011;3822;48.784;9.174;2023-02-03T20:45:16;2.03;;;0.90;;
7561;SDS011;3822;48.784;9.174;2023-02-03T20:47:45;1.10;;;1.00;;
7561;SDS011;3822;48.784;9.174;2023-02-03T20:50:32;1.03;;;0.93;;
7561;SDS011;3822;48.784;9.174;2023-02-03T20:52:59;0.97;;;0.87;;
7561;SDS011;3822;48.784;9.174;2023-02-03T20:55:27;1.13;;;1.03;;
7561;SDS011;3822;48.784;9.174;2023-02-03T20:57:54;1.13;;;1.03;;
7561;SDS011;3822;48.784;9.174;2023-02-03T21:00:24;1.10;;;1.00;;
7561;SDS011;3822;48.784;9.174;2023-02-03T21:02:55;1.30;;;1.00;;
7561;SDS011;3822;48.784;9.174;2023-02-03T21:05:42;1.17;;;0.93;;
7561;SDS011;3822;48.784;9.174;2023-02-03T21:08:17;1.20;;;1.00;;
7561;SDS011;3822;48.784;9.174;2023-02-03T21:10:45;1.30;;;0.90;;
7561;SDS011;3822;48.784;9.174;2023-02-03T21:13:19;1.20;;;1.10;;
7561;SDS011;3822;48.784;9.174;2023-02-03T21:15:55;1.27;;;1.17;;
7561;SDS011;3822;48.784;9.174;2023-02-03T21:18:40;1.10;;;1.00;;
7561;SDS011;3822;48.784;9.174;2023-02-03T21:21:37;1.10;;;1.00;;
7561;SDS011;3822;48.784;9.174;2023-02-03T21:24:28;1.53;;;1.13;;
7561;SDS011;3822;48.784;9.174;2023-02-03T21:26:59;1.20;;;1.10;;
7561;SDS011;3822;48.784;9.174;2023-02-03T21:29:35;1.40;;;1.17;;
7561;SDS011;3822;48.784;9.174;2023-02-03T21:32:10;1.63;;;1.10;;
7561;SDS011;3822;48.784;9.174;2023-02-03T21:34:40;3.00;;;1.53;;
7561;SDS011;3822;48.784;9.174;2023-02-03T21:37:35;1.60;;;1.40;;
7561;SDS011;3822;48.784;9.174;2023-02-03T21:40:13;1.93;;;1.40;;
7561;SDS011;3822;48.784;9.174;2023-02-03T21:42:48;2.60;;;1.50;;
7561;SDS011;3822;48.784;9.174;2023-02-03T21:47:45;1.50;;;1.40;;
7561;SDS011;3822;48.784;9.174;2023-02-03T21:55:35;3.30;;;1.70;;
7561;SDS011;3822;48.784;9.174;2023-02-03T21:58:21;9.90;;;2.00;;
7561;SDS011;3822;48.784;9.174;2023-02-03T22:00:57;1.90;;;1.60;;
7561;SDS011;3822;48.784;9.174;2023-02-03T22:03:27;2.87;;;2.13;;
7561;SDS011;3822;48.784;9.174;2023-02-03T22:08:43;3.23;;;1.80;;
7561;SDS011;3822;48.784;9.174;2023-02-03T22:11:12;3.20;;;1.80;;
7561;SDS011;3822;48.784;9.174;2023-02-03T22:13:41;2.50;;;2.30;;
7561;SDS011;3822;48.784;9.174;2023-02-03T22:16:09;3.53;;;2.10;;
7561;SDS011;3822;48.784;9.174;2023-02-03T22:18:39;3.13;;;2.50;;
7561;SDS011;3822;48.784;9.174;2023-02-03T22:21:08;4.03;;;2.40;;
7561;SDS011;3822;48.784;9.174;2023-02-03T22:23:35;2.73;;;2.43;;
7561;SDS011;3822;48.784;9.174;2023-02-03T22:26:02;3.57;;;2.20;;
7561;SDS011;3822;48.784;9.174;2023-02-03T22:28:32;3.10;;;2.50;;
7561;SDS011;3822;48.784;9.174;2023-02-03T22:30:59;3.80;;;2.50;;
7561;SDS011;3822;48.784;9.174;2023-02-03T22:33:27;3.40;;;2.67;;
7561;SDS011;3822;48.784;9.174;2023-02-03T22:35:54;2.50;;;2.23;;
7561;SDS011;3822;48.784;9.174;2023-02-03T22:38:20;2.43;;;2.23;;
7561;SDS011;3822;48.784;9.174;2023-02-03T22:40:47;3.00;;;2.63;;
7561;SDS011;3822;48.784;9.174;2023-02-03T22:43:13;2.77;;;2.50;;
7561;SDS011;3822;48.784;9.174;2023-02-03T22:45:40;3.87;;;2.37;;
7561;SDS011;3822;48.784;9.174;2023-02-03T22:48:06;2.80;;;2.60;;
7561;SDS011;3822;48.784;9.174;2023-02-03T22:50:33;5.47;;;2.17;;
7561;SDS011;3822;48.784;9.174;2023-02-03T22:52:59;3.07;;;2.50;;
7561;SDS011;3822;48.784;9.174;2023-02-03T22:55:29;2.67;;;2.30;;
7561;SDS011;3822;48.784;9.174;2023-02-03T22:57:56;5.87;;;2.63;;
7561;SDS011;3822;48.784;9.174;2023-02-03T23:00:23;3.63;;;2.83;;
7561;SDS011;3822;48.784;9.174;2023-02-03T23:02:50;5.63;;;2.67;;
7561;SDS011;3822;48.784;9.174;2023-02-03T23:05:17;3.50;;;2.97;;
7561;SDS011;3822;48.784;9.174;2023-02-03T23:07:44;6.13;;;2.20;;
7561;SDS011;3822;48.784;9.174;2023-02-03T23:10:12;2.90;;;2.20;;
7561;SDS011;3822;48.784;9.174;2023-02-03T23:12:45;4.20;;;2.50;;
7561;SDS011;3822;48.784;9.174;2023-02-03T23:15:13;3.13;;;2.30;;
7561;SDS011;3822;48.784;9.174;2023-02-03T23:17:40;3.10;;;2.73;;
7561;SDS011;3822;48.784;9.174;2023-02-03T23:20:06;4.67;;;2.67;;
7561;SDS011;3822;48.784;9.174;2023-02-03T23:22:36;3.57;;;2.90;;
7561;SDS011;3822;48.784;9.174;2023-02-03T23:25:03;3.63;;;2.77;;
7561;SDS011;3822;48.784;9.174;2023-02-03T23:27:30;2.60;;;2.40;;
7561;SDS011;3822;48.784;9.174;2023-02-03T23:29:57;3.33;;;2.13;;
7561;SDS011;3822;48.784;9.174;2023-02-03T23:32:23;2.70;;;2.50;;
7561;SDS011;3822;48.784;9.174;2023-02-03T23:34:50;4.47;;;2.67;;
7561;SDS011;3822;48.784;9.174;2023-02-03T23:37:37;2.40;;;2.03;;
7561;SDS011;3822;48.784;9.174;2023-02-03T23:40:03;2.20;;;2.00;;
7561;SDS011;3822;48.784;9.174;2023-02-03T23:42:31;4.00;;;2.40;;
7561;SDS011;3822;48.784;9.174;2023-02-03T23:44:58;3.97;;;3.23;;
7561;SDS011;3822;48.784;9.174;2023-02-03T23:47:26;4.10;;;2.90;;
7561;SDS011;3822;48.784;9.174;2023-02-03T23:49:53;4.37;;;2.30;;
7561;SDS011;3822;48.784;9.174;2023-02-03T23:52:19;2.80;;;2.23;;
7561;SDS011;3822;48.784;9.174;2023-02-03T23:54:46;2.13;;;1.93;;
7561;SDS011;3822;48.784;9.174;2023-02-03T23:57:12;2.63;;;2.43;;
7561;SDS011;3822;48.784;9.174;2023-02-03T23:59:39;2.60;;;2.40;;
